FW1598 Arlington VA US current weather conditions

sailwx.info

Wind from 271 at 1 knots gusting 11

Air temperature 6.1° C
Dewpoint -2.3° C

Last reported at 2020-Jan-28 22:00 UTC.
Time now 2020-Jan-28 22:48 UTC

Location: N 38°55' W 077°09'.
View on Google Maps.

See reports from other nearby stations

  
Tides and Currents Weather Stations Pressure Air Temp Water Temp Dewpoint Dewpoint Depression Visibility Wind Speed Wind Dir Waves Ship Positions
date/time (UTC)wind fromknots sea level pressurealtimeterstation pressurevisibilityair tempwater tempwave heightnotes
2020-Jan-28 22:00 271 1 gusting 11 6.1
2020-Jan-28 21:45 313 7 gusting 13 6.1
2020-Jan-28 21:30 284 6 gusting 14 6.1
2020-Jan-28 21:15 275 5 gusting 16 6.7
2020-Jan-28 21:00 317 4 gusting 12 6.7
2020-Jan-28 20:46 311 4 gusting 9 6.7
2020-Jan-28 20:30 298 4 gusting 13 6.1
2020-Jan-28 20:15 293 5 gusting 10 6.7
2020-Jan-28 20:00 009 2 gusting 10 6.7
2020-Jan-28 19:46 264 6 gusting 13 7.2
2020-Jan-28 19:30 290 3 gusting 9 6.1
2020-Jan-28 19:15 290 6 gusting 14 6.1
2020-Jan-28 19:00 336 5 gusting 9 6.7
2020-Jan-28 18:45 275 3 gusting 10 6.7
2020-Jan-28 18:30 009 1 gusting 7 6.1
2020-Jan-28 18:15 277 6 gusting 11 6.1
2020-Jan-28 18:00 342 7 gusting 14 6.1
2020-Jan-28 17:45 286 6 gusting 12 6.1
2020-Jan-28 17:30 308 6 gusting 14 6.1
2020-Jan-28 17:15 317 6 gusting 13 6.1
2020-Jan-28 17:00 321 4 gusting 10 6.1
2020-Jan-28 16:45 098 4 gusting 14 6.7
2020-Jan-28 16:30 300 7 gusting 13 6.7
2020-Jan-28 16:15 290 4 gusting 11 6.1
2020-Jan-28 16:00 290 6 gusting 12 6.1
2020-Jan-28 15:45 319 6 gusting 15 6.1
2020-Jan-28 15:30 279 3 gusting 11 6.1
2020-Jan-28 15:18 245 1 gusting 10 6.1
2020-Jan-28 15:02 283 1 gusting 8 5.6
2020-Jan-28 14:47 261 6 gusting 11 5.6
2020-Jan-28 14:32 300 4 gusting 11 5.0
2020-Jan-28 14:16 297 6 gusting 9 5.0
2020-Jan-28 14:02 286 5 gusting 10 4.4
2020-Jan-28 13:47 274 1 gusting 8 3.9
2020-Jan-28 13:31 302 4 gusting 9 3.9
2020-Jan-28 13:16 299 3 gusting 6 3.9
2020-Jan-28 13:01 273 1 gusting 6 3.3
2020-Jan-28 12:46 272 3 gusting 6 2.8
2020-Jan-28 12:31 292 2 gusting 6 3.3
2020-Jan-28 12:16 290 1 gusting 7 3.3
2020-Jan-28 12:01 279 1 gusting 10 3.3
2020-Jan-28 11:45 347 2 gusting 7 3.3
2020-Jan-28 11:30 289 3 gusting 8 3.3
2020-Jan-28 11:15 285 3 gusting 6 3.3
2020-Jan-28 11:00 310 6 gusting 12 3.3
2020-Jan-28 10:45 285 5 gusting 10 3.3
2020-Jan-28 10:30 285 4 gusting 13 3.3
2020-Jan-28 10:15 281 2 gusting 6 3.3
2020-Jan-28 10:00 296 4 gusting 8 3.3
2020-Jan-28 09:45 287 4 gusting 7 3.3
2020-Jan-28 09:30 287 4 gusting 8 3.3
2020-Jan-28 09:15 292 2 gusting 10 3.3
2020-Jan-28 09:00 292 2 gusting 6 3.3
2020-Jan-28 08:45 330 2 gusting 7 3.3
2020-Jan-28 08:30 300 2 gusting 10 3.9
2020-Jan-28 08:17 296 2 gusting 6 3.9
2020-Jan-28 08:01 289 4 gusting 7 3.9
2020-Jan-28 07:46 290 1 gusting 6 3.9
2020-Jan-28 07:31 288 1 gusting 6 3.9
2020-Jan-28 07:17 292 4 gusting 7 3.9
2020-Jan-28 07:02 301 5 gusting 9 3.9
2020-Jan-28 06:47 288 4 gusting 8 3.9
2020-Jan-28 06:31 297 3 gusting 10 3.9
2020-Jan-28 06:17 287 1 gusting 7 3.9
2020-Jan-28 06:01 278 4 gusting 7 3.9
2020-Jan-28 05:46 278 0 gusting 6 3.9
2020-Jan-28 05:32 297 3 gusting 8 3.9
2020-Jan-28 05:16 288 5 gusting 9 3.9
2020-Jan-28 05:02 273 1 gusting 6 3.9
2020-Jan-28 04:46 315 3 gusting 8 4.4
2020-Jan-28 04:31 306 4 gusting 9 4.4
2020-Jan-28 04:16 328 5 gusting 10 4.4
2020-Jan-28 04:02 287 2 gusting 9 4.4
2020-Jan-28 03:45 283 5 gusting 9 4.4
2020-Jan-28 03:31 296 2 gusting 6 4.4
2020-Jan-28 03:16 298 4 gusting 9 4.4
2020-Jan-28 03:01 236 3 gusting 8 4.4
2020-Jan-28 02:46 301 3 gusting 8 4.4
2020-Jan-28 02:31 284 2 gusting 10 4.4
2020-Jan-28 02:17 288 2 gusting 7 4.4
2020-Jan-28 02:01 302 1 gusting 5 4.4
2020-Jan-28 01:46 287 2 gusting 6 4.4
2020-Jan-28 01:31 319 1 gusting 4 4.4
2020-Jan-28 01:16 300 2 gusting 7 4.4
2020-Jan-28 01:00 290 4 gusting 8 4.4
2020-Jan-28 00:47 275 6 gusting 11 5.0
2020-Jan-28 00:31 291 5 gusting 11 5.0
2020-Jan-28 00:15 282 5 gusting 10 5.0
2020-Jan-28 00:01 297 3 gusting 13 5.6
2020-Jan-27 23:45 303 3 gusting 8 5.6
2020-Jan-27 23:33 305 3 gusting 9 5.6
2020-Jan-27 23:00 286 6 gusting 12 6.1
2020-Jan-27 22:46 301 6 gusting 12 6.1
2020-Jan-27 22:31 275 6 gusting 16 6.1
2020-Jan-27 22:17 276 6 gusting 11 6.7
2020-Jan-27 22:00 294 3 gusting 10 6.7
2020-Jan-27 21:46 286 3 gusting 7 6.7
2020-Jan-27 21:30 306 5 gusting 9 7.2
2020-Jan-27 21:16 242 4 gusting 8 7.2
2020-Jan-27 21:02 298 3 gusting 6 7.2
2020-Jan-27 20:46 267 3 gusting 10 7.2
2020-Jan-27 20:32 263 5 gusting 11 7.8
2020-Jan-27 20:16 295 4 gusting 8 8.3
2020-Jan-27 20:01 271 4 gusting 13 8.3
2020-Jan-27 19:45 292 4 gusting 11 8.3
2020-Jan-27 19:30 309 5 gusting 9 8.3
2020-Jan-27 19:15 283 1 gusting 6 7.8
2020-Jan-27 19:00 229 2 gusting 7 7.8
2020-Jan-27 18:46 288 2 gusting 10 7.8
2020-Jan-27 18:31 262 2 gusting 7 7.8
2020-Jan-27 18:15 330 2 gusting 7 7.8
2020-Jan-27 18:01 288 3 gusting 8 8.3
2020-Jan-27 17:45 287 2 gusting 13 8.3
2020-Jan-27 17:30 293 5 gusting 10 8.3
2020-Jan-27 17:15 287 3 gusting 14 8.3
2020-Jan-27 17:00 292 6 gusting 10 7.8
2020-Jan-27 16:45 274 6 gusting 10 8.3
2020-Jan-27 16:30 263 1 gusting 7 8.3
2020-Jan-27 16:15 273 5 gusting 10 8.3
2020-Jan-27 16:00 290 4 gusting 10 7.8
2020-Jan-27 15:45 292 2 gusting 11 7.2
2020-Jan-27 15:30 278 3 gusting 10 7.2
2020-Jan-27 15:15 284 3 gusting 7 6.7
2020-Jan-27 15:00 223 4 gusting 9 6.1
2020-Jan-27 14:46 229 2 gusting 7 5.6
2020-Jan-27 14:33 230 3 gusting 8 5.6
2020-Jan-27 14:16 248 3 gusting 7 5.6
2020-Jan-27 14:02 220 2 gusting 6 4.4
2020-Jan-27 13:47 216 3 gusting 7 4.4
2020-Jan-27 13:32 275 1 gusting 6 3.9
2020-Jan-27 13:16 234 3 gusting 6 3.9
2020-Jan-27 13:02 254 0 gusting 6 3.3
2020-Jan-27 12:46 238 2 gusting 5 3.3
2020-Jan-27 12:33 264 2 gusting 6 2.8
2020-Jan-27 12:18 266 2 gusting 6 2.2
2020-Jan-27 12:02 250 2 gusting 7 1.7
2020-Jan-27 11:45 257 1 gusting 4 1.7
2020-Jan-27 11:31 227 1 gusting 4 1.1
2020-Jan-27 11:16 203 0 gusting 3 1.1
2020-Jan-27 11:01 242 0 gusting 4 1.7
2020-Jan-27 10:47 240 1 gusting 5 1.7
2020-Jan-27 10:31 229 2 gusting 6 1.7
2020-Jan-27 10:15 252 1 gusting 6 1.7
2020-Jan-27 10:00 231 1 gusting 5 1.7
2020-Jan-27 09:46 227 1 gusting 2 1.1
2020-Jan-27 09:31 227 0.6
2020-Jan-27 09:15 227 1.1
2020-Jan-27 09:01 227 1.1
2020-Jan-27 08:45 227 1.7
2020-Jan-27 08:30 225 1 gusting 3 2.2
2020-Jan-27 08:15 236 1 gusting 4 2.2
2020-Jan-27 08:00 240 1 gusting 4 2.2
2020-Jan-27 07:45 219 1 gusting 4 2.2
2020-Jan-27 07:30 225 0 gusting 3 2.2
2020-Jan-27 07:15 219 0 gusting 2 2.8
2020-Jan-27 07:00 218 2.8
2020-Jan-27 06:45 218 2.8
2020-Jan-27 06:33 209 0 gusting 3 2.8
2020-Jan-27 06:17 240 0 gusting 2 2.8
2020-Jan-27 06:02 263 3.3
2020-Jan-27 05:48 263 3.3
2020-Jan-27 05:31 262 2.8
2020-Jan-27 05:16 262 2.2
2020-Jan-27 05:02 262 2.2
2020-Jan-27 04:46 277 0 gusting 3 2.8
2020-Jan-27 04:32 287 0 gusting 2 2.8
2020-Jan-27 04:16 287 0 gusting 2 2.8
2020-Jan-27 04:02 287 0 gusting 1 2.8
2020-Jan-27 03:46 287 0 gusting 2 3.3
2020-Jan-27 03:31 287 3.3
2020-Jan-27 03:16 287 3.9
2020-Jan-27 03:01 287 4.4
2020-Jan-27 02:46 286 0 gusting 6 4.4
2020-Jan-27 02:31 299 4.4
2020-Jan-27 02:16 296 0 gusting 2 4.4
2020-Jan-27 02:01 254 4.4
2020-Jan-27 01:46 302 0 gusting 4 5.0
2020-Jan-27 01:31 296 1 gusting 5 5.0
2020-Jan-27 01:16 281 3 gusting 9 5.0
2020-Jan-27 01:01 290 0 gusting 8 5.0
2020-Jan-27 00:46 298 3 gusting 8 5.0
2020-Jan-27 00:32 289 2 gusting 9 5.6
2020-Jan-27 00:16 271 3 gusting 13 5.6
2020-Jan-27 00:02 313 2 gusting 8 5.6
2020-Jan-26 23:46 263 5 gusting 12 5.6
2020-Jan-26 23:31 309 3 gusting 7 6.1
2020-Jan-26 23:17 282 5 gusting 11 6.1
2020-Jan-26 23:01 298 3 gusting 8 6.1
2020-Jan-26 22:45 311 3 gusting 6 6.1
2020-Jan-26 22:31 297 2 gusting 5 6.1
2020-Jan-26 22:16 278 3 gusting 6 6.7
2020-Jan-26 22:01 282 1 gusting 6 6.7